sensor_id;sensor_type;location;lat;lon;timestamp;pressure;altitude;pressure_sealevel;temperature;humidity
11830;BME280;5972;42.134;24.718;2023-03-31T00:01:00;99718.47;;;10.67;46.66
11830;BME280;5972;42.134;24.718;2023-03-31T00:03:29;99738.06;;;10.76;46.96
11830;BME280;5972;42.134;24.718;2023-03-31T00:05:59;99733.03;;;10.75;47.36
11830;BME280;5972;42.134;24.718;2023-03-31T00:08:28;99726.59;;;10.67;47.18
11830;BME280;5972;42.134;24.718;2023-03-31T00:11:00;99727.94;;;10.61;47.33
11830;BME280;5972;42.134;24.718;2023-03-31T00:13:28;99727.63;;;10.63;47.59
11830;BME280;5972;42.134;24.718;2023-03-31T00:15:58;99729.84;;;10.61;47.80
11830;BME280;5972;42.134;24.718;2023-03-31T00:18:26;99719.72;;;10.58;47.84
11830;BME280;5972;42.134;24.718;2023-03-31T00:20:54;99706.28;;;10.49;47.85
11830;BME280;5972;42.134;24.718;2023-03-31T00:23:26;99726.50;;;10.64;47.96
11830;BME280;5972;42.134;24.718;2023-03-31T00:25:53;99704.63;;;10.57;47.94
11830;BME280;5972;42.134;24.718;2023-03-31T00:28:20;99721.28;;;10.71;47.85
11830;BME280;5972;42.134;24.718;2023-03-31T00:30:47;99721.97;;;10.68;48.05
11830;BME280;5972;42.134;24.718;2023-03-31T00:33:16;99697.28;;;10.57;48.04
11830;BME280;5972;42.134;24.718;2023-03-31T00:35:42;99717.91;;;10.62;48.64
11830;BME280;5972;42.134;24.718;2023-03-31T00:38:10;99717.91;;;10.37;49.42
11830;BME280;5972;42.134;24.718;2023-03-31T00:40:43;99715.91;;;10.47;49.45
11830;BME280;5972;42.134;24.718;2023-03-31T00:43:24;99711.81;;;10.40;49.15
11830;BME280;5972;42.134;24.718;2023-03-31T00:45:54;99714.75;;;10.23;49.27
11830;BME280;5972;42.134;24.718;2023-03-31T00:48:22;99707.41;;;10.24;48.64
11830;BME280;5972;42.134;24.718;2023-03-31T00:50:52;99702.00;;;10.24;48.30
11830;BME280;5972;42.134;24.718;2023-03-31T00:53:22;99708.81;;;9.97;49.59
11830;BME280;5972;42.134;24.718;2023-03-31T00:55:52;99709.75;;;10.13;48.76
11830;BME280;5972;42.134;24.718;2023-03-31T00:58:20;99706.91;;;10.10;48.67
11830;BME280;5972;42.134;24.718;2023-03-31T01:00:54;99708.25;;;10.16;49.00
11830;BME280;5972;42.134;24.718;2023-03-31T01:03:24;99702.75;;;10.12;49.02
11830;BME280;5972;42.134;24.718;2023-03-31T01:05:54;99695.97;;;10.06;48.96
11830;BME280;5972;42.134;24.718;2023-03-31T01:08:24;99694.75;;;10.16;49.74
11830;BME280;5972;42.134;24.718;2023-03-31T01:10:53;99694.91;;;10.19;49.77
11830;BME280;5972;42.134;24.718;2023-03-31T01:13:21;99698.06;;;10.21;49.69
11830;BME280;5972;42.134;24.718;2023-03-31T01:15:49;99705.94;;;10.26;49.56
11830;BME280;5972;42.134;24.718;2023-03-31T01:18:16;99709.00;;;10.25;49.84
11830;BME280;5972;42.134;24.718;2023-03-31T01:21:03;99707.75;;;10.22;50.22
11830;BME280;5972;42.134;24.718;2023-03-31T01:23:55;99706.63;;;10.23;50.59
11830;BME280;5972;42.134;24.718;2023-03-31T01:26:48;99705.69;;;10.07;51.54
11830;BME280;5972;42.134;24.718;2023-03-31T01:29:46;99709.13;;;9.95;51.93
11830;BME280;5972;42.134;24.718;2023-03-31T01:35:56;99702.03;;;10.03;51.50
11830;BME280;5972;42.134;24.718;2023-03-31T01:41:48;99678.81;;;9.45;52.19
11830;BME280;5972;42.134;24.718;2023-03-31T01:44:22;99681.56;;;9.36;52.04
11830;BME280;5972;42.134;24.718;2023-03-31T01:46:57;99681.41;;;9.53;52.47
11830;BME280;5972;42.134;24.718;2023-03-31T01:49:34;99680.31;;;9.54;52.23
11830;BME280;5972;42.134;24.718;2023-03-31T01:52:11;99683.41;;;9.44;52.71
11830;BME280;5972;42.134;24.718;2023-03-31T01:54:47;99682.03;;;9.38;53.58
11830;BME280;5972;42.134;24.718;2023-03-31T01:57:19;99673.28;;;9.41;53.04
11830;BME280;5972;42.134;24.718;2023-03-31T01:59:53;99679.13;;;9.43;53.57
11830;BME280;5972;42.134;24.718;2023-03-31T02:02:27;99676.94;;;8.83;57.52
11830;BME280;5972;42.134;24.718;2023-03-31T02:04:59;99677.84;;;8.87;58.43
11830;BME280;5972;42.134;24.718;2023-03-31T02:07:31;99671.31;;;8.67;60.48
11830;BME280;5972;42.134;24.718;2023-03-31T02:10:03;99663.94;;;8.56;60.89
11830;BME280;5972;42.134;24.718;2023-03-31T02:12:33;99662.06;;;8.48;63.35
11830;BME280;5972;42.134;24.718;2023-03-31T02:15:04;99660.25;;;8.60;62.78
11830;BME280;5972;42.134;24.718;2023-03-31T02:17:34;99658.25;;;8.49;64.33
11830;BME280;5972;42.134;24.718;2023-03-31T02:20:07;99657.22;;;8.62;63.46
11830;BME280;5972;42.134;24.718;2023-03-31T02:22:38;99660.66;;;8.42;65.77
11830;BME280;5972;42.134;24.718;2023-03-31T02:25:10;99653.66;;;8.49;65.79
11830;BME280;5972;42.134;24.718;2023-03-31T02:27:41;99658.44;;;8.06;69.85
11830;BME280;5972;42.134;24.718;2023-03-31T02:30:10;99653.53;;;7.99;71.68
11830;BME280;5972;42.134;24.718;2023-03-31T02:32:38;99655.19;;;8.21;70.23
11830;BME280;5972;42.134;24.718;2023-03-31T02:35:08;99657.22;;;8.32;70.03
11830;BME280;5972;42.134;24.718;2023-03-31T02:37:35;99659.72;;;8.46;69.90
11830;BME280;5972;42.134;24.718;2023-03-31T02:40:06;99660.91;;;8.57;68.96
11830;BME280;5972;42.134;24.718;2023-03-31T02:42:35;99663.47;;;8.54;69.30
11830;BME280;5972;42.134;24.718;2023-03-31T02:45:06;99664.22;;;8.63;68.30
11830;BME280;5972;42.134;24.718;2023-03-31T02:47:33;99658.16;;;8.66;68.58
11830;BME280;5972;42.134;24.718;2023-03-31T02:50:01;99656.44;;;8.82;67.16
11830;BME280;5972;42.134;24.718;2023-03-31T02:52:39;99656.94;;;8.84;65.75
11830;BME280;5972;42.134;24.718;2023-03-31T02:55:37;99660.94;;;8.99;64.52
11830;BME280;5972;42.134;24.718;2023-03-31T02:58:36;99661.84;;;9.03;64.16
11830;BME280;5972;42.134;24.718;2023-03-31T03:01:19;99646.84;;;8.72;65.76
11830;BME280;5972;42.134;24.718;2023-03-31T03:03:59;99661.09;;;9.02;63.66
11830;BME280;5972;42.134;24.718;2023-03-31T03:06:36;99659.81;;;9.00;62.97
11830;BME280;5972;42.134;24.718;2023-03-31T03:09:20;99664.63;;;9.15;62.39
11830;BME280;5972;42.134;24.718;2023-03-31T03:11:53;99680.06;;;9.27;61.18
11830;BME280;5972;42.134;24.718;2023-03-31T03:14:27;99680.34;;;9.34;61.02
11830;BME280;5972;42.134;24.718;2023-03-31T03:17:03;99680.59;;;9.41;60.00
11830;BME280;5972;42.134;24.718;2023-03-31T03:19:31;99680.47;;;9.37;59.29
11830;BME280;5972;42.134;24.718;2023-03-31T03:21:59;99688.50;;;9.46;59.41
11830;BME280;5972;42.134;24.718;2023-03-31T03:24:26;99685.44;;;9.47;60.04
11830;BME280;5972;42.134;24.718;2023-03-31T03:26:54;99696.25;;;9.47;60.61
11830;BME280;5972;42.134;24.718;2023-03-31T03:29:21;99693.22;;;9.49;60.79
11830;BME280;5972;42.134;24.718;2023-03-31T03:31:47;99697.25;;;9.43;62.22
11830;BME280;5972;42.134;24.718;2023-03-31T03:34:16;99695.50;;;8.85;69.47
11830;BME280;5972;42.134;24.718;2023-03-31T03:36:44;99701.56;;;9.02;70.24
11830;BME280;5972;42.134;24.718;2023-03-31T03:39:12;99700.38;;;8.91;70.00
11830;BME280;5972;42.134;24.718;2023-03-31T03:41:38;99712.41;;;8.94;68.05
11830;BME280;5972;42.134;24.718;2023-03-31T03:44:05;99699.19;;;9.01;66.92
11830;BME280;5972;42.134;24.718;2023-03-31T03:46:32;99685.69;;;9.01;65.51
11830;BME280;5972;42.134;24.718;2023-03-31T03:48:59;99704.31;;;8.94;64.63
11830;BME280;5972;42.134;24.718;2023-03-31T03:51:27;99691.41;;;8.79;65.86
11830;BME280;5972;42.134;24.718;2023-03-31T03:53:53;99675.22;;;8.79;64.96
11830;BME280;5972;42.134;24.718;2023-03-31T03:56:20;99689.63;;;8.83;64.91
11830;BME280;5972;42.134;24.718;2023-03-31T03:58:47;99690.88;;;8.85;64.87
11830;BME280;5972;42.134;24.718;2023-03-31T04:01:14;99689.16;;;8.81;65.25
11830;BME280;5972;42.134;24.718;2023-03-31T04:03:41;99701.72;;;8.76;65.64
11830;BME280;5972;42.134;24.718;2023-03-31T04:06:07;99695.69;;;8.80;65.76
11830;BME280;5972;42.134;24.718;2023-03-31T04:08:36;99687.13;;;8.77;66.21
11830;BME280;5972;42.134;24.718;2023-03-31T04:11:13;99693.47;;;8.52;71.30
11830;BME280;5972;42.134;24.718;2023-03-31T04:13:41;99681.50;;;8.62;70.33
11830;BME280;5972;42.134;24.718;2023-03-31T04:16:08;99682.31;;;8.62;70.54
11830;BME280;5972;42.134;24.718;2023-03-31T04:18:36;99676.44;;;8.60;67.21
11830;BME280;5972;42.134;24.718;2023-03-31T04:21:08;99665.44;;;8.65;66.72
11830;BME280;5972;42.134;24.718;2023-03-31T04:23:39;99672.13;;;8.68;66.80
11830;BME280;5972;42.134;24.718;2023-03-31T04:26:11;99661.84;;;8.82;65.68
11830;BME280;5972;42.134;24.718;2023-03-31T04:28:38;99662.25;;;8.93;64.89
11830;BME280;5972;42.134;24.718;2023-03-31T04:31:08;99661.72;;;8.99;63.73
11830;BME280;5972;42.134;24.718;2023-03-31T04:33:40;99639.66;;;8.97;63.05
11830;BME280;5972;42.134;24.718;2023-03-31T04:36:10;99654.16;;;9.13;61.27
11830;BME280;5972;42.134;24.718;2023-03-31T04:38:44;99653.16;;;9.18;59.81
11830;BME280;5972;42.134;24.718;2023-03-31T04:41:12;99645.06;;;9.18;59.12
11830;BME280;5972;42.134;24.718;2023-03-31T04:43:39;99657.47;;;9.31;58.99
11830;BME280;5972;42.134;24.718;2023-03-31T04:46:06;99662.59;;;9.45;59.06
11830;BME280;5972;42.134;24.718;2023-03-31T04:48:33;99659.81;;;9.53;57.94
11830;BME280;5972;42.134;24.718;2023-03-31T04:50:59;99664.34;;;9.62;57.20
11830;BME280;5972;42.134;24.718;2023-03-31T04:53:26;99660.53;;;9.63;56.49
11830;BME280;5972;42.134;24.718;2023-03-31T04:55:54;99657.50;;;9.76;55.57
11830;BME280;5972;42.134;24.718;2023-03-31T04:58:21;99654.38;;;9.86;54.47
11830;BME280;5972;42.134;24.718;2023-03-31T05:00:48;99646.97;;;9.95;53.63
11830;BME280;5972;42.134;24.718;2023-03-31T05:03:15;99649.91;;;10.02;53.50
11830;BME280;5972;42.134;24.718;2023-03-31T05:05:42;99639.75;;;9.99;53.26
11830;BME280;5972;42.134;24.718;2023-03-31T05:08:08;99639.88;;;10.03;53.67
11830;BME280;5972;42.134;24.718;2023-03-31T05:10:35;99634.03;;;10.13;53.98
11830;BME280;5972;42.134;24.718;2023-03-31T05:13:04;99611.09;;;10.19;53.63
11830;BME280;5972;42.134;24.718;2023-03-31T05:15:30;99613.53;;;10.00;53.74
11830;BME280;5972;42.134;24.718;2023-03-31T05:17:57;99608.13;;;10.00;53.60
11830;BME280;5972;42.134;24.718;2023-03-31T05:20:24;99584.69;;;10.04;53.64
11830;BME280;5972;42.134;24.718;2023-03-31T05:22:51;99603.41;;;10.21;53.94
11830;BME280;5972;42.134;24.718;2023-03-31T05:25:18;99595.19;;;10.30;53.77
11830;BME280;5972;42.134;24.718;2023-03-31T05:27:45;99601.16;;;10.35;53.44
11830;BME280;5972;42.134;24.718;2023-03-31T05:30:14;99594.84;;;10.31;53.94
11830;BME280;5972;42.134;24.718;2023-03-31T05:32:41;99598.69;;;10.30;54.14
11830;BME280;5972;42.134;24.718;2023-03-31T05:35:09;99589.44;;;10.31;53.74
11830;BME280;5972;42.134;24.718;2023-03-31T05:37:36;99581.00;;;10.21;53.62
11830;BME280;5972;42.134;24.718;2023-03-31T05:40:03;99584.47;;;10.33;53.38
11830;BME280;5972;42.134;24.718;2023-03-31T05:42:30;99582.41;;;10.42;52.95
11830;BME280;5972;42.134;24.718;2023-03-31T05:44:57;99586.84;;;10.47;52.89
11830;BME280;5972;42.134;24.718;2023-03-31T05:47:25;99583.19;;;10.55;51.96
11830;BME280;5972;42.134;24.718;2023-03-31T05:49:52;99576.09;;;10.51;52.12
11830;BME280;5972;42.134;24.718;2023-03-31T05:52:19;99580.94;;;10.57;52.49
11830;BME280;5972;42.134;24.718;2023-03-31T05:54:46;99568.44;;;10.53;53.09
11830;BME280;5972;42.134;24.718;2023-03-31T05:57:12;99564.94;;;10.52;53.02
11830;BME280;5972;42.134;24.718;2023-03-31T05:59:39;99582.72;;;10.65;53.21
11830;BME280;5972;42.134;24.718;2023-03-31T06:02:07;99572.00;;;10.69;52.74
11830;BME280;5972;42.134;24.718;2023-03-31T06:04:35;99561.75;;;10.62;52.24
11830;BME280;5972;42.134;24.718;2023-03-31T06:07:03;99568.47;;;10.80;52.10
11830;BME280;5972;42.134;24.718;2023-03-31T06:09:30;99568.66;;;10.88;52.33
11830;BME280;5972;42.134;24.718;2023-03-31T06:11:56;99563.13;;;10.56;53.10
11830;BME280;5972;42.134;24.718;2023-03-31T06:14:23;99573.44;;;10.78;52.69
11830;BME280;5972;42.134;24.718;2023-03-31T06:16:50;99573.81;;;10.93;52.09
11830;BME280;5972;42.134;24.718;2023-03-31T06:19:17;99567.13;;;10.87;51.61
11830;BME280;5972;42.134;24.718;2023-03-31T06:21:45;99577.63;;;11.04;51.11
11830;BME280;5972;42.134;24.718;2023-03-31T06:24:12;99568.56;;;11.12;50.68
11830;BME280;5972;42.134;24.718;2023-03-31T06:26:39;99570.94;;;11.13;49.93
11830;BME280;5972;42.134;24.718;2023-03-31T06:29:06;99564.69;;;11.25;49.61
11830;BME280;5972;42.134;24.718;2023-03-31T06:31:33;99560.22;;;11.33;49.40
11830;BME280;5972;42.134;24.718;2023-03-31T06:34:00;99567.28;;;11.37;49.77
11830;BME280;5972;42.134;24.718;2023-03-31T06:36:27;99570.53;;;11.43;49.78
11830;BME280;5972;42.134;24.718;2023-03-31T06:38:55;99562.94;;;11.48;49.23
11830;BME280;5972;42.134;24.718;2023-03-31T06:41:22;99561.75;;;11.61;48.87
11830;BME280;5972;42.134;24.718;2023-03-31T06:43:49;99556.75;;;11.63;47.86
11830;BME280;5972;42.134;24.718;2023-03-31T06:46:16;99563.25;;;11.90;47.38
11830;BME280;5972;42.134;24.718;2023-03-31T06:48:42;99562.88;;;12.07;47.22
11830;BME280;5972;42.134;24.718;2023-03-31T06:51:09;99551.28;;;12.26;46.93
11830;BME280;5972;42.134;24.718;2023-03-31T06:53:36;99522.72;;;12.48;45.63
11830;BME280;5972;42.134;24.718;2023-03-31T06:56:05;99549.84;;;13.06;44.09
11830;BME280;5972;42.134;24.718;2023-03-31T06:58:32;99547.84;;;13.03;44.31
11830;BME280;5972;42.134;24.718;2023-03-31T07:01:01;99547.56;;;12.88;44.78
11830;BME280;5972;42.134;24.718;2023-03-31T07:03:28;99540.69;;;12.95;44.37
11830;BME280;5972;42.134;24.718;2023-03-31T07:05:55;99525.34;;;13.02;44.47
11830;BME280;5972;42.134;24.718;2023-03-31T07:08:23;99540.44;;;13.19;45.45
11830;BME280;5972;42.134;24.718;2023-03-31T07:10:53;99533.13;;;13.04;46.76
11830;BME280;5972;42.134;24.718;2023-03-31T07:13:22;99542.72;;;13.40;45.55
11830;BME280;5972;42.134;24.718;2023-03-31T07:15:49;99549.47;;;13.95;45.57
11830;BME280;5972;42.134;24.718;2023-03-31T07:18:17;99535.16;;;14.84;42.37
11830;BME280;5972;42.134;24.718;2023-03-31T07:20:47;99531.28;;;15.22;41.52
11830;BME280;5972;42.134;24.718;2023-03-31T07:23:15;99524.50;;;15.83;40.06
11830;BME280;5972;42.134;24.718;2023-03-31T07:25:42;99524.03;;;16.32;39.67
11830;BME280;5972;42.134;24.718;2023-03-31T07:28:09;99532.91;;;16.97;37.83
11830;BME280;5972;42.134;24.718;2023-03-31T07:30:38;99525.88;;;16.96;37.51
11830;BME280;5972;42.134;24.718;2023-03-31T07:33:06;99525.53;;;17.05;37.26
11830;BME280;5972;42.134;24.718;2023-03-31T07:35:33;99531.75;;;17.05;37.13
11830;BME280;5972;42.134;24.718;2023-03-31T07:38:02;99534.97;;;17.43;37.13
11830;BME280;5972;42.134;24.718;2023-03-31T07:40:29;99538.91;;;18.06;35.84
11830;BME280;5972;42.134;24.718;2023-03-31T07:42:56;99533.69;;;18.72;34.83
11830;BME280;5972;42.134;24.718;2023-03-31T07:45:24;99531.38;;;19.36;34.19
11830;BME280;5972;42.134;24.718;2023-03-31T07:47:53;99530.47;;;20.05;33.36
11830;BME280;5972;42.134;24.718;2023-03-31T07:50:21;99517.00;;;20.89;32.32
11830;BME280;5972;42.134;24.718;2023-03-31T07:52:48;99521.47;;;21.60;31.03
11830;BME280;5972;42.134;24.718;2023-03-31T07:55:16;99519.44;;;21.87;30.58
11830;BME280;5972;42.134;24.718;2023-03-31T07:57:44;99516.50;;;22.01;30.33
11830;BME280;5972;42.134;24.718;2023-03-31T08:00:13;99513.66;;;22.05;30.03
11830;BME280;5972;42.134;24.718;2023-03-31T08:02:41;99520.50;;;22.99;29.34
11830;BME280;5972;42.134;24.718;2023-03-31T08:05:12;99503.25;;;23.47;28.44
11830;BME280;5972;42.134;24.718;2023-03-31T08:07:42;99506.94;;;23.89;28.04
11830;BME280;5972;42.134;24.718;2023-03-31T08:10:12;99491.84;;;23.77;28.06
11830;BME280;5972;42.134;24.718;2023-03-31T08:12:38;99490.69;;;24.77;27.25
11830;BME280;5972;42.134;24.718;2023-03-31T08:15:06;99487.00;;;25.22;26.88
11830;BME280;5972;42.134;24.718;2023-03-31T08:17:33;99482.19;;;26.07;25.89
11830;BME280;5972;42.134;24.718;2023-03-31T08:20:00;99471.38;;;25.88;26.22
11830;BME280;5972;42.134;24.718;2023-03-31T08:22:30;99465.81;;;26.00;26.30
11830;BME280;5972;42.134;24.718;2023-03-31T08:24:57;99447.34;;;26.72;25.86
11830;BME280;5972;42.134;24.718;2023-03-31T08:27:24;99457.53;;;27.46;25.04
11830;BME280;5972;42.134;24.718;2023-03-31T08:29:51;99439.47;;;27.41;24.89
11830;BME280;5972;42.134;24.718;2023-03-31T08:32:19;99438.00;;;27.86;24.40
11830;BME280;5972;42.134;24.718;2023-03-31T08:34:47;99430.66;;;26.94;25.47
11830;BME280;5972;42.134;24.718;2023-03-31T08:37:14;99427.97;;;27.21;25.03
11830;BME280;5972;42.134;24.718;2023-03-31T08:39:42;99436.19;;;27.34;25.23
11830;BME280;5972;42.134;24.718;2023-03-31T08:42:11;99429.47;;;28.44;24.31
11830;BME280;5972;42.134;24.718;2023-03-31T08:44:43;99421.91;;;28.96;23.86
11830;BME280;5972;42.134;24.718;2023-03-31T08:47:15;99422.00;;;29.82;23.31
11830;BME280;5972;42.134;24.718;2023-03-31T08:49:48;99404.97;;;29.80;22.90
11830;BME280;5972;42.134;24.718;2023-03-31T08:52:22;99407.84;;;30.09;23.06
11830;BME280;5972;42.134;24.718;2023-03-31T08:54:54;99397.34;;;30.92;22.38
11830;BME280;5972;42.134;24.718;2023-03-31T08:57:25;99406.34;;;31.16;22.22
11830;BME280;5972;42.134;24.718;2023-03-31T08:59:53;99384.00;;;31.36;22.35
11830;BME280;5972;42.134;24.718;2023-03-31T09:02:29;99369.59;;;31.03;22.68
11830;BME280;5972;42.134;24.718;2023-03-31T09:05:21;99368.97;;;31.34;22.05
11830;BME280;5972;42.134;24.718;2023-03-31T09:07:57;99365.63;;;30.95;22.47
11830;BME280;5972;42.134;24.718;2023-03-31T09:10:37;99354.88;;;30.73;22.84
11830;BME280;5972;42.134;24.718;2023-03-31T09:13:16;99346.34;;;31.32;22.35
11830;BME280;5972;42.134;24.718;2023-03-31T09:15:52;99346.47;;;30.88;22.81
11830;BME280;5972;42.134;24.718;2023-03-31T09:18:27;99327.50;;;31.53;22.25
11830;BME280;5972;42.134;24.718;2023-03-31T09:20:59;99335.41;;;31.54;22.34
11830;BME280;5972;42.134;24.718;2023-03-31T09:23:31;99334.09;;;31.29;22.17
11830;BME280;5972;42.134;24.718;2023-03-31T09:26:02;99323.75;;;31.35;22.27
11830;BME280;5972;42.134;24.718;2023-03-31T09:28:34;99334.22;;;31.41;22.19
11830;BME280;5972;42.134;24.718;2023-03-31T09:31:06;99321.06;;;30.71;22.68
11830;BME280;5972;42.134;24.718;2023-03-31T09:33:36;99320.53;;;29.64;23.30
11830;BME280;5972;42.134;24.718;2023-03-31T09:36:13;99313.00;;;28.51;25.16
11830;BME280;5972;42.134;24.718;2023-03-31T09:38:41;99312.66;;;28.07;25.58
11830;BME280;5972;42.134;24.718;2023-03-31T09:41:10;99303.94;;;27.36;25.94
11830;BME280;5972;42.134;24.718;2023-03-31T09:43:39;99292.63;;;27.49;26.28
11830;BME280;5972;42.134;24.718;2023-03-31T09:46:15;99296.31;;;27.09;26.66
11830;BME280;5972;42.134;24.718;2023-03-31T09:48:49;99290.22;;;27.51;26.01
11830;BME280;5972;42.134;24.718;2023-03-31T09:51:20;99266.03;;;28.02;25.55
11830;BME280;5972;42.134;24.718;2023-03-31T09:53:52;99278.41;;;29.00;24.58
11830;BME280;5972;42.134;24.718;2023-03-31T09:56:34;99275.22;;;29.55;24.08
11830;BME280;5972;42.134;24.718;2023-03-31T09:59:14;99269.31;;;29.91;23.61
11830;BME280;5972;42.134;24.718;2023-03-31T10:01:43;99275.25;;;29.99;23.43
11830;BME280;5972;42.134;24.718;2023-03-31T10:04:18;99270.22;;;29.73;23.59
11830;BME280;5972;42.134;24.718;2023-03-31T10:06:46;99270.28;;;29.35;24.17
11830;BME280;5972;42.134;24.718;2023-03-31T10:09:13;99269.00;;;29.74;23.69
11830;BME280;5972;42.134;24.718;2023-03-31T10:11:52;99255.91;;;29.81;23.70
11830;BME280;5972;42.134;24.718;2023-03-31T10:14:25;99260.72;;;30.24;23.32
11830;BME280;5972;42.134;24.718;2023-03-31T10:16:54;99259.28;;;29.85;23.36
11830;BME280;5972;42.134;24.718;2023-03-31T10:19:22;99266.31;;;29.80;23.87
11830;BME280;5972;42.134;24.718;2023-03-31T10:21:55;99256.88;;;29.24;24.38
11830;BME280;5972;42.134;24.718;2023-03-31T10:24:22;99238.28;;;29.07;24.53
11830;BME280;5972;42.134;24.718;2023-03-31T10:26:52;99241.03;;;28.35;24.78
11830;BME280;5972;42.134;24.718;2023-03-31T10:29:23;99238.53;;;27.95;25.54
11830;BME280;5972;42.134;24.718;2023-03-31T10:31:51;99227.03;;;27.60;25.88
11830;BME280;5972;42.134;24.718;2023-03-31T10:34:18;99227.97;;;27.39;26.33
11830;BME280;5972;42.134;24.718;2023-03-31T10:36:47;99223.69;;;28.73;25.35
11830;BME280;5972;42.134;24.718;2023-03-31T10:39:16;99215.50;;;29.61;24.15
11830;BME280;5972;42.134;24.718;2023-03-31T10:41:49;99210.72;;;29.91;23.98
11830;BME280;5972;42.134;24.718;2023-03-31T10:44:35;99201.28;;;29.74;24.21
11830;BME280;5972;42.134;24.718;2023-03-31T10:47:05;99206.09;;;29.73;24.00
11830;BME280;5972;42.134;24.718;2023-03-31T10:49:43;99205.28;;;29.29;24.27
11830;BME280;5972;42.134;24.718;2023-03-31T10:52:17;99195.81;;;29.50;23.93
11830;BME280;5972;42.134;24.718;2023-03-31T10:54:50;99183.72;;;29.53;24.05
11830;BME280;5972;42.134;24.718;2023-03-31T10:57:25;99185.31;;;29.60;24.02
11830;BME280;5972;42.134;24.718;2023-03-31T11:00:10;99176.44;;;28.55;24.72
11830;BME280;5972;42.134;24.718;2023-03-31T11:05:31;99156.03;;;26.59;27.08
11830;BME280;5972;42.134;24.718;2023-03-31T11:11:07;99145.06;;;26.37;27.57
11830;BME280;5972;42.134;24.718;2023-03-31T11:13:43;99146.47;;;26.33;27.61
11830;BME280;5972;42.134;24.718;2023-03-31T11:16:20;99139.69;;;26.43;26.83
11830;BME280;5972;42.134;24.718;2023-03-31T11:21:49;99126.94;;;26.05;27.46
11830;BME280;5972;42.134;24.718;2023-03-31T11:24:29;99119.44;;;25.44;28.13
11830;BME280;5972;42.134;24.718;2023-03-31T11:27:07;99117.56;;;25.63;28.10
11830;BME280;5972;42.134;24.718;2023-03-31T11:29:46;99105.16;;;25.86;27.71
11830;BME280;5972;42.134;24.718;2023-03-31T11:32:39;99094.06;;;26.35;27.27
11830;BME280;5972;42.134;24.718;2023-03-31T11:35:22;99095.47;;;26.48;27.11
11830;BME280;5972;42.134;24.718;2023-03-31T11:38:03;99085.72;;;26.26;27.21
11830;BME280;5972;42.134;24.718;2023-03-31T11:40:46;99093.75;;;26.33;27.30
11830;BME280;5972;42.134;24.718;2023-03-31T11:43:21;99067.25;;;26.50;27.03
11830;BME280;5972;42.134;24.718;2023-03-31T11:45:52;99084.38;;;26.30;26.65
11830;BME280;5972;42.134;24.718;2023-03-31T11:48:30;99066.13;;;26.11;26.60
11830;BME280;5972;42.134;24.718;2023-03-31T11:51:02;99069.16;;;25.95;26.95
11830;BME280;5972;42.134;24.718;2023-03-31T11:53:33;99065.41;;;25.71;27.55
11830;BME280;5972;42.134;24.718;2023-03-31T11:56:01;99070.09;;;25.52;27.93
11830;BME280;5972;42.134;24.718;2023-03-31T11:58:34;99049.06;;;25.33;28.11
11830;BME280;5972;42.134;24.718;2023-03-31T12:01:08;99078.59;;;25.57;28.20
11830;BME280;5972;42.134;24.718;2023-03-31T12:03:45;99059.84;;;25.09;28.75
11830;BME280;5972;42.134;24.718;2023-03-31T12:06:17;99064.50;;;24.68;29.70
11830;BME280;5972;42.134;24.718;2023-03-31T12:08:50;99060.50;;;24.91;28.89
11830;BME280;5972;42.134;24.718;2023-03-31T12:11:24;99052.94;;;25.13;28.77
11830;BME280;5972;42.134;24.718;2023-03-31T12:13:57;99052.13;;;25.04;28.98
11830;BME280;5972;42.134;24.718;2023-03-31T12:16:34;99047.19;;;24.77;29.26
11830;BME280;5972;42.134;24.718;2023-03-31T12:19:09;99040.53;;;24.74;29.26
11830;BME280;5972;42.134;24.718;2023-03-31T12:21:40;99039.41;;;24.84;29.05
11830;BME280;5972;42.134;24.718;2023-03-31T12:24:10;99031.09;;;24.84;28.80
11830;BME280;5972;42.134;24.718;2023-03-31T12:26:43;99040.47;;;25.09;28.58
11830;BME280;5972;42.134;24.718;2023-03-31T12:29:21;99031.41;;;24.86;28.84
11830;BME280;5972;42.134;24.718;2023-03-31T12:31:52;99044.16;;;24.84;29.19
11830;BME280;5972;42.134;24.718;2023-03-31T12:34:22;99041.25;;;24.66;28.88
11830;BME280;5972;42.134;24.718;2023-03-31T12:37:00;99035.28;;;24.46;29.22
11830;BME280;5972;42.134;24.718;2023-03-31T12:39:42;99031.16;;;24.28;29.36
11830;BME280;5972;42.134;24.718;2023-03-31T12:42:33;99025.72;;;24.25;28.87
11830;BME280;5972;42.134;24.718;2023-03-31T12:45:10;99031.22;;;24.37;29.05
11830;BME280;5972;42.134;24.718;2023-03-31T12:47:51;99024.41;;;24.51;28.15
11830;BME280;5972;42.134;24.718;2023-03-31T12:50:35;99017.53;;;24.34;28.26
11830;BME280;5972;42.134;24.718;2023-03-31T12:53:13;99014.13;;;24.17;28.83
11830;BME280;5972;42.134;24.718;2023-03-31T12:55:45;99009.59;;;24.23;28.94
11830;BME280;5972;42.134;24.718;2023-03-31T12:58:46;99016.31;;;24.35;28.67
11830;BME280;5972;42.134;24.718;2023-03-31T13:01:15;99006.19;;;24.41;28.49
11830;BME280;5972;42.134;24.718;2023-03-31T13:03:47;98975.66;;;24.23;28.41
11830;BME280;5972;42.134;24.718;2023-03-31T13:06:53;98996.03;;;24.38;28.16
11830;BME280;5972;42.134;24.718;2023-03-31T13:09:44;98997.63;;;24.26;28.90
11830;BME280;5972;42.134;24.718;2023-03-31T13:12:16;98984.09;;;24.07;28.77
11830;BME280;5972;42.134;24.718;2023-03-31T13:14:46;98981.63;;;24.21;28.62
11830;BME280;5972;42.134;24.718;2023-03-31T13:17:33;98957.53;;;24.09;28.90
11830;BME280;5972;42.134;24.718;2023-03-31T13:20:25;98965.75;;;24.34;28.14
11830;BME280;5972;42.134;24.718;2023-03-31T13:23:02;98966.63;;;24.53;28.20
11830;BME280;5972;42.134;24.718;2023-03-31T13:25:48;98959.03;;;24.88;28.05
11830;BME280;5972;42.134;24.718;2023-03-31T13:28:23;98964.00;;;25.02;27.81
11830;BME280;5972;42.134;24.718;2023-03-31T13:30:54;98949.13;;;24.78;28.08
11830;BME280;5972;42.134;24.718;2023-03-31T13:33:32;98938.50;;;24.76;27.90
11830;BME280;5972;42.134;24.718;2023-03-31T13:36:13;98953.13;;;24.55;27.96
11830;BME280;5972;42.134;24.718;2023-03-31T13:38:55;98961.94;;;24.41;28.33
11830;BME280;5972;42.134;24.718;2023-03-31T13:41:36;98948.00;;;24.23;28.50